createdAt,value
2019-04-03T00:01:47.716Z,25.88
2019-04-03T00:04:20.678Z,28.45
2019-04-03T00:06:53.290Z,27.05
2019-04-03T00:09:26.004Z,27.17
2019-04-03T00:11:58.655Z,28.60
2019-04-03T00:14:31.176Z,27.15
2019-04-03T00:17:04.429Z,30.77
2019-04-03T00:19:36.705Z,42.67
2019-04-03T00:22:09.803Z,41.25
2019-04-03T00:24:42.076Z,46.08
2019-04-03T00:27:14.844Z,41.77
2019-04-03T00:29:47.048Z,40.65
2019-04-03T00:32:19.523Z,33.55
2019-04-03T00:34:53.432Z,30.72
2019-04-03T00:37:25.846Z,31.75
2019-04-03T00:39:58.584Z,29.87
2019-04-03T00:42:31.283Z,30.52
2019-04-03T00:45:03.799Z,28.42
2019-04-03T00:47:36.725Z,29.87
2019-04-03T00:50:09.736Z,37.45
2019-04-03T00:52:42.080Z,37.30
2019-04-03T00:55:14.631Z,36.40
2019-04-03T00:57:47.151Z,36.68
2019-04-03T01:00:20.067Z,35.88
2019-04-03T01:02:52.363Z,37.30
2019-04-03T01:05:24.785Z,37.03
2019-04-03T01:07:59.198Z,34.25
2019-04-03T01:10:31.202Z,35.28
2019-04-03T01:13:03.891Z,33.95
2019-04-03T01:15:36.316Z,33.00
2019-04-03T01:18:08.623Z,32.35
2019-04-03T01:20:41.164Z,31.05
2019-04-03T01:23:13.687Z,30.50
2019-04-03T01:25:46.099Z,29.75
2019-04-03T01:28:18.740Z,28.75
2019-04-03T01:30:50.843Z,31.02
2019-04-03T01:33:23.388Z,30.82
2019-04-03T01:35:55.595Z,29.50
2019-04-03T01:38:27.981Z,26.68
2019-04-03T01:41:00.491Z,25.77
2019-04-03T01:43:33.198Z,26.42
2019-04-03T01:46:05.899Z,24.75
2019-04-03T01:48:38.338Z,24.87
2019-04-03T01:51:11.008Z,24.85
2019-04-03T01:53:43.744Z,23.80
2019-04-03T01:56:16.063Z,24.00
2019-04-03T01:58:48.841Z,24.05
2019-04-03T02:01:21.299Z,24.40
2019-04-03T02:03:53.711Z,23.38
2019-04-03T02:06:26.019Z,24.00
2019-04-03T02:08:58.181Z,23.40
2019-04-03T02:11:30.979Z,23.15
2019-04-03T02:14:03.872Z,23.27
2019-04-03T02:16:36.458Z,23.20
2019-04-03T02:19:09.044Z,23.20
2019-04-03T02:21:41.358Z,22.50
2019-04-03T02:24:14.056Z,22.02
2019-04-03T02:26:46.378Z,21.90
2019-04-03T02:29:18.875Z,21.23
2019-04-03T02:31:52.713Z,21.02
2019-04-03T02:34:26.184Z,20.55
2019-04-03T02:36:58.979Z,19.98
2019-04-03T02:39:31.395Z,22.25
2019-04-03T02:42:09.310Z,20.90
2019-04-03T02:44:41.647Z,21.33
2019-04-03T02:47:14.708Z,21.57
2019-04-03T02:49:47.207Z,21.15
2019-04-03T02:52:19.841Z,20.43
2019-04-03T02:54:52.523Z,20.62
2019-04-03T02:57:25.165Z,20.10
2019-04-03T02:59:58.839Z,20.62
2019-04-03T03:02:31.161Z,19.20
2019-04-03T03:05:03.808Z,18.57
2019-04-03T03:07:36.955Z,19.12
2019-04-03T03:10:10.885Z,17.92
2019-04-03T03:12:43.578Z,18.85
2019-04-03T03:15:16.554Z,18.80
2019-04-03T03:17:49.457Z,17.87
2019-04-03T03:20:24.420Z,18.40
2019-04-03T03:22:58.777Z,17.37
2019-04-03T03:25:33.301Z,17.60
2019-04-03T03:28:06.176Z,18.75
2019-04-03T03:30:45.286Z,18.60
2019-04-03T03:33:28.268Z,17.30
2019-04-03T03:35:49.664Z,17.42
2019-04-03T03:38:21.729Z,16.65
2019-04-03T03:40:54.591Z,17.62
2019-04-03T03:43:27.836Z,16.82
2019-04-03T03:46:01.088Z,16.50
2019-04-03T03:48:34.382Z,17.05
2019-04-03T03:51:08.062Z,16.97
2019-04-03T03:53:44.067Z,18.32
2019-04-03T03:56:15.176Z,17.20
2019-04-03T03:58:48.821Z,17.25
2019-04-03T04:01:21.677Z,16.77
2019-04-03T04:03:54.413Z,17.15
2019-04-03T04:06:29.133Z,17.98
2019-04-03T04:09:02.299Z,17.85
2019-04-03T04:11:36.787Z,18.30
2019-04-03T04:14:09.529Z,20.00
2019-04-03T04:16:42.996Z,19.32
2019-04-03T04:19:15.880Z,19.10
2019-04-03T04:21:48.230Z,19.50
2019-04-03T04:24:21.103Z,19.92
2019-04-03T04:26:53.616Z,18.98
2019-04-03T04:29:26.498Z,20.17
2019-04-03T04:31:58.932Z,19.25
2019-04-03T04:34:31.496Z,18.65
2019-04-03T04:37:04.019Z,20.52
2019-04-03T04:39:38.119Z,19.60
2019-04-03T04:42:10.610Z,19.67
2019-04-03T04:44:43.384Z,20.45
2019-04-03T04:47:15.799Z,18.98
2019-04-03T04:49:48.358Z,20.30
2019-04-03T04:52:21.780Z,19.92
2019-04-03T04:54:54.124Z,19.98
2019-04-03T04:57:26.613Z,20.43
2019-04-03T04:59:59.068Z,18.60
2019-04-03T05:02:31.376Z,19.35
2019-04-03T05:05:04.016Z,18.45
2019-04-03T05:07:36.864Z,19.12
2019-04-03T05:10:09.965Z,19.02
2019-04-03T05:12:44.725Z,17.37
2019-04-03T05:15:19.156Z,19.65
2019-04-03T05:17:50.745Z,19.10
2019-04-03T05:20:23.177Z,18.35
2019-04-03T05:22:55.751Z,17.85
2019-04-03T05:25:29.806Z,17.50
2019-04-03T05:28:02.782Z,17.32
2019-04-03T05:30:38.001Z,17.75
2019-04-03T05:33:11.465Z,17.45
2019-04-03T05:35:46.276Z,17.40
2019-04-03T05:38:18.128Z,16.75
2019-04-03T05:40:51.010Z,16.80
2019-04-03T05:43:23.569Z,16.85
2019-04-03T05:45:56.558Z,16.57
2019-04-03T05:48:29.210Z,17.32
2019-04-03T05:51:01.671Z,16.20
2019-04-03T05:53:36.727Z,15.75
2019-04-03T05:56:08.080Z,16.37
2019-04-03T05:58:40.393Z,17.45
2019-04-03T06:01:13.017Z,16.90
2019-04-03T06:03:45.813Z,15.98
2019-04-03T06:06:18.329Z,16.37
2019-04-03T06:08:51.611Z,16.15
2019-04-03T06:11:25.136Z,16.93
2019-04-03T06:13:57.562Z,15.75
2019-04-03T06:16:30.220Z,15.98
2019-04-03T06:19:02.518Z,15.55
2019-04-03T06:21:34.962Z,15.98
2019-04-03T06:24:07.378Z,16.23
2019-04-03T06:26:40.213Z,15.65
2019-04-03T06:29:12.771Z,16.12
2019-04-03T06:31:45.385Z,16.67
2019-04-03T06:34:17.821Z,15.58
2019-04-03T06:36:50.716Z,17.02
2019-04-03T06:39:24.194Z,14.90
2019-04-03T06:41:57.116Z,16.12
2019-04-03T06:44:29.517Z,16.07
2019-04-03T06:47:02.273Z,15.98
2019-04-03T06:49:35.680Z,16.07
2019-04-03T06:52:09.297Z,16.97
2019-04-03T06:54:44.153Z,17.10
2019-04-03T06:57:15.489Z,17.87
2019-04-03T06:59:48.694Z,19.10
2019-04-03T07:02:21.948Z,21.15
2019-04-03T07:04:55.019Z,21.60
2019-04-03T07:07:34.287Z,21.15
2019-04-03T07:10:04.177Z,20.85
2019-04-03T07:12:36.554Z,20.23
2019-04-03T07:15:09.855Z,19.92
2019-04-03T07:17:42.445Z,19.10
2019-04-03T07:20:18.796Z,21.05
2019-04-03T07:22:48.964Z,21.60
2019-04-03T07:25:21.401Z,21.35
2019-04-03T07:27:54.291Z,21.35
2019-04-03T07:30:26.791Z,21.50
2019-04-03T07:32:59.545Z,22.42
2019-04-03T07:35:32.187Z,20.65
2019-04-03T07:38:04.800Z,24.45
2019-04-03T07:40:37.613Z,21.17
2019-04-03T07:43:10.189Z,19.45
2019-04-03T07:45:43.834Z,19.02
2019-04-03T07:48:17.191Z,18.12
2019-04-03T07:50:50.076Z,16.55
2019-04-03T07:53:22.598Z,15.83
2019-04-03T07:55:55.331Z,15.15
2019-04-03T07:58:30.659Z,15.35
2019-04-03T08:01:02.056Z,13.48
2019-04-03T08:03:34.751Z,15.00
2019-04-03T08:06:07.319Z,15.40
2019-04-03T08:08:39.966Z,16.30
2019-04-03T08:11:14.746Z,15.95
2019-04-03T08:13:46.398Z,17.07
2019-04-03T08:16:18.963Z,17.02
2019-04-03T08:18:52.047Z,16.17
2019-04-03T08:21:26.262Z,15.35
2019-04-03T08:23:58.914Z,15.65
2019-04-03T08:26:31.508Z,15.18
2019-04-03T08:29:04.172Z,16.50
2019-04-03T08:31:36.391Z,15.48
2019-04-03T08:34:15.849Z,15.50
2019-04-03T08:36:42.657Z,15.85
2019-04-03T08:39:16.037Z,14.53
2019-04-03T08:41:49.071Z,14.83
2019-04-03T08:44:21.922Z,15.35
2019-04-03T08:46:54.322Z,14.60
2019-04-03T08:49:27.215Z,16.05
2019-04-03T08:51:59.464Z,14.50
2019-04-03T08:54:32.102Z,15.95
2019-04-03T08:57:04.655Z,15.60
2019-04-03T08:59:37.280Z,15.78
2019-04-03T09:02:12.195Z,15.20
2019-04-03T09:04:43.381Z,16.20
2019-04-03T09:07:15.682Z,16.32
2019-04-03T09:09:48.574Z,15.93
2019-04-03T09:12:21.053Z,14.50
2019-04-03T09:14:56.380Z,13.75
2019-04-03T09:17:27.636Z,14.35
2019-04-03T09:20:00.573Z,14.15
2019-04-03T09:22:33.133Z,15.08
2019-04-03T09:25:07.484Z,14.00
2019-04-03T09:27:40.672Z,13.08
2019-04-03T09:30:16.223Z,13.50
2019-04-03T09:32:48.924Z,12.50
2019-04-03T09:35:22.099Z,14.25
2019-04-03T09:37:54.683Z,15.08
2019-04-03T09:40:27.296Z,15.23
2019-04-03T09:42:59.723Z,15.03
2019-04-03T09:45:32.803Z,15.65
2019-04-03T09:48:06.165Z,13.95
2019-04-03T09:50:38.963Z,16.70
2019-04-03T09:53:11.935Z,15.65
2019-04-03T09:55:44.686Z,13.20
2019-04-03T09:58:17.014Z,13.22
2019-04-03T10:00:49.917Z,14.10
2019-04-03T10:03:23.521Z,13.35
2019-04-03T10:05:56.484Z,11.55
2019-04-03T10:08:29.376Z,13.15
2019-04-03T10:11:01.788Z,11.80
2019-04-03T10:13:34.127Z,12.07
2019-04-03T10:16:07.100Z,11.95
2019-04-03T10:18:41.714Z,11.55
2019-04-03T10:21:13.906Z,11.78
2019-04-03T10:23:46.740Z,10.30
2019-04-03T10:26:19.752Z,10.30
2019-04-03T10:28:52.132Z,10.10
2019-04-03T10:31:24.856Z,10.58
2019-04-03T10:33:57.716Z,10.88
2019-04-03T10:36:30.138Z,10.53
2019-04-03T10:39:03.982Z,11.33
2019-04-03T10:41:36.292Z,11.50
2019-04-03T10:44:10.200Z,11.12
2019-04-03T10:46:42.673Z,12.18
2019-04-03T10:49:15.116Z,11.40
2019-04-03T10:51:47.433Z,11.55
2019-04-03T10:54:20.227Z,11.88
2019-04-03T10:56:52.592Z,11.28
2019-04-03T10:59:24.959Z,11.40
2019-04-03T11:01:57.180Z,11.78
2019-04-03T11:04:29.952Z,12.53
2019-04-03T11:07:02.501Z,12.03
2019-04-03T11:09:35.532Z,13.00
2019-04-03T11:12:10.146Z,12.65
2019-04-03T11:14:42.473Z,12.47
2019-04-03T11:17:17.544Z,12.80
2019-04-03T11:19:48.601Z,12.20
2019-04-03T11:22:21.215Z,12.63
2019-04-03T11:24:53.957Z,12.40
2019-04-03T11:27:40.875Z,13.90
2019-04-03T11:30:00.313Z,12.73
2019-04-03T11:32:32.930Z,12.93
2019-04-03T11:35:06.363Z,12.75
2019-04-03T11:37:38.674Z,13.22
2019-04-03T11:40:12.281Z,14.63
2019-04-03T11:42:44.694Z,14.90
2019-04-03T11:45:17.628Z,15.85
2019-04-03T11:47:50.149Z,20.70
2019-04-03T11:50:24.262Z,23.20
2019-04-03T11:52:56.978Z,23.85
2019-04-03T11:55:29.946Z,23.87
2019-04-03T11:58:02.573Z,22.77
2019-04-03T12:00:36.261Z,22.35
2019-04-03T12:03:10.800Z,21.75
2019-04-03T12:05:43.046Z,23.90
2019-04-03T12:08:15.947Z,23.60
2019-04-03T12:10:48.366Z,22.27
2019-04-03T12:13:21.668Z,20.27
2019-04-03T12:15:57.492Z,20.52
2019-04-03T12:18:28.526Z,20.20
2019-04-03T12:21:01.054Z,19.40
2019-04-03T12:23:33.515Z,20.25
2019-04-03T12:26:06.248Z,19.82
2019-04-03T12:28:40.647Z,20.00
2019-04-03T12:31:13.462Z,19.98
2019-04-03T12:33:53.157Z,18.73
2019-04-03T12:36:20.262Z,18.55
2019-04-03T12:38:55.041Z,21.97
2019-04-03T12:41:27.508Z,21.07
2019-04-03T12:44:00.280Z,20.37
2019-04-03T12:46:34.152Z,19.77
2019-04-03T12:49:08.123Z,19.62
2019-04-03T12:51:41.165Z,20.97
2019-04-03T12:54:14.120Z,20.65
2019-04-03T12:56:47.023Z,20.27
2019-04-03T12:59:20.963Z,21.52
2019-04-03T13:01:53.183Z,21.75
2019-04-03T13:04:26.463Z,22.48
2019-04-03T13:06:59.343Z,22.02
2019-04-03T13:09:31.897Z,21.93
2019-04-03T13:12:04.457Z,22.05
2019-04-03T13:14:36.840Z,22.15
2019-04-03T13:17:12.706Z,22.32
2019-04-03T13:19:43.260Z,20.95
2019-04-03T13:22:18.133Z,22.00
2019-04-03T13:24:49.653Z,22.52
2019-04-03T13:27:22.037Z,22.00
2019-04-03T13:29:54.356Z,20.30
2019-04-03T13:32:27.240Z,22.55
2019-04-03T13:34:59.537Z,25.43
2019-04-03T13:37:32.100Z,26.80
2019-04-03T13:40:06.360Z,28.75
2019-04-03T13:42:39.144Z,28.32
2019-04-03T13:45:12.486Z,28.70
2019-04-03T13:47:47.046Z,28.62
2019-04-03T13:50:21.851Z,28.25
2019-04-03T13:52:53.609Z,27.45
2019-04-03T13:55:28.516Z,27.10
2019-04-03T13:58:00.356Z,25.88
2019-04-03T14:00:33.823Z,25.75
2019-04-03T14:03:07.020Z,25.43
2019-04-03T14:05:42.083Z,25.25
2019-04-03T14:08:13.592Z,23.52
2019-04-03T14:10:46.375Z,22.27
2019-04-03T14:13:19.083Z,23.77
2019-04-03T14:15:51.516Z,23.15
2019-04-03T14:18:23.884Z,22.62
2019-04-03T14:20:57.088Z,24.05
2019-04-03T14:23:29.582Z,25.08
2019-04-03T14:26:06.306Z,23.50
2019-04-03T14:28:35.974Z,24.98
2019-04-03T14:31:08.598Z,23.22
2019-04-03T14:33:44.128Z,23.02
2019-04-03T14:36:17.742Z,22.75
2019-04-03T14:38:48.297Z,22.02
2019-04-03T14:41:20.787Z,22.32
2019-04-03T14:43:53.162Z,21.75
2019-04-03T14:46:25.884Z,23.50
2019-04-03T14:48:59.632Z,22.98
2019-04-03T14:51:32.105Z,28.07
2019-04-03T14:54:04.498Z,24.87
2019-04-03T14:56:37.047Z,25.60
2019-04-03T14:59:10.141Z,25.75
2019-04-03T15:01:43.205Z,25.35
2019-04-03T15:04:16.296Z,26.23
2019-04-03T15:07:00.501Z,28.27
2019-04-03T15:09:22.485Z,31.23
2019-04-03T15:11:54.638Z,29.25
2019-04-03T15:14:27.970Z,29.37
2019-04-03T15:17:04.150Z,29.10
2019-04-03T15:19:34.954Z,29.15
2019-04-03T15:22:07.695Z,27.85
2019-04-03T15:24:42.321Z,28.77
2019-04-03T15:27:14.788Z,30.25
2019-04-03T15:29:47.737Z,27.90
2019-04-03T15:32:20.470Z,26.85
2019-04-03T15:34:54.179Z,27.65
2019-04-03T15:37:26.518Z,25.95
2019-04-03T15:39:59.181Z,25.92
2019-04-03T15:42:32.411Z,25.85
2019-04-03T15:45:05.710Z,25.05
2019-04-03T15:47:41.752Z,25.43
2019-04-03T15:50:12.318Z,24.92
2019-04-03T15:52:48.460Z,25.75
2019-04-03T15:55:19.762Z,26.52
2019-04-03T15:57:53.863Z,23.42
2019-04-03T16:00:28.394Z,24.75
2019-04-03T16:03:01.255Z,25.48
2019-04-03T16:05:36.497Z,25.10
2019-04-03T16:08:11.699Z,25.00
2019-04-03T16:10:43.011Z,25.48
2019-04-03T16:13:16.084Z,25.30
2019-04-03T16:15:49.099Z,25.62
2019-04-03T16:18:21.640Z,26.60
2019-04-03T16:20:54.071Z,25.97
2019-04-03T16:23:26.391Z,25.65
2019-04-03T16:25:58.831Z,26.75
2019-04-03T16:28:33.278Z,26.00
2019-04-03T16:31:06.236Z,26.82
2019-04-03T16:33:38.990Z,26.23
2019-04-03T16:36:12.161Z,26.80
2019-04-03T16:38:44.756Z,26.42
2019-04-03T16:41:18.010Z,25.68
2019-04-03T16:43:50.327Z,24.57
2019-04-03T16:46:23.636Z,23.80
2019-04-03T16:48:55.846Z,24.47
2019-04-03T16:51:30.796Z,25.45
2019-04-03T16:54:02.102Z,23.27
2019-04-03T16:56:34.858Z,25.12
2019-04-03T16:59:07.923Z,24.32
2019-04-03T17:01:44.358Z,24.23
2019-04-03T17:04:24.961Z,23.57
2019-04-03T17:06:49.095Z,23.05
2019-04-03T17:09:22.169Z,24.02
2019-04-03T17:11:54.849Z,25.15
2019-04-03T17:14:27.290Z,25.48
2019-04-03T17:17:00.010Z,25.65
2019-04-03T17:19:32.831Z,24.05
2019-04-03T17:22:06.661Z,24.87
2019-04-03T17:24:42.776Z,26.65
2019-04-03T17:27:13.092Z,25.55
2019-04-03T17:29:46.135Z,25.05
2019-04-03T17:32:19.571Z,26.42
2019-04-03T17:34:52.326Z,25.95
2019-04-03T17:37:26.404Z,23.47
2019-04-03T17:39:58.652Z,25.25
2019-04-03T17:42:31.163Z,25.25
2019-04-03T17:45:03.608Z,24.20
2019-04-03T17:47:36.198Z,24.25
2019-04-03T17:50:09.628Z,24.00
2019-04-03T17:52:42.211Z,24.32
2019-04-03T17:55:15.176Z,24.40
2019-04-03T17:57:47.801Z,24.18
2019-04-03T18:00:22.414Z,22.40
2019-04-03T18:02:55.185Z,23.50
2019-04-03T18:05:27.587Z,23.55
2019-04-03T18:08:00.009Z,23.20
2019-04-03T18:10:32.587Z,21.57
2019-04-03T18:13:05.389Z,21.17
2019-04-03T18:15:37.861Z,20.52
2019-04-03T18:18:10.769Z,19.60
2019-04-03T18:20:44.677Z,20.60
2019-04-03T18:23:17.081Z,20.68
2019-04-03T18:25:49.302Z,20.10
2019-04-03T18:28:22.023Z,19.87
2019-04-03T18:30:54.459Z,19.57
2019-04-03T18:33:27.016Z,20.23
2019-04-03T18:35:59.324Z,19.20
2019-04-03T18:38:31.681Z,19.07
2019-04-03T18:41:04.350Z,18.95
2019-04-03T18:43:36.998Z,19.52
2019-04-03T18:46:09.750Z,19.98
2019-04-03T18:48:52.833Z,20.10
2019-04-03T18:51:15.816Z,20.17
2019-04-03T18:53:49.123Z,19.57
2019-04-03T18:56:21.788Z,19.17
2019-04-03T18:58:55.012Z,20.70
2019-04-03T19:01:28.429Z,19.67
2019-04-03T19:04:00.951Z,20.75
2019-04-03T19:06:33.682Z,20.55
2019-04-03T19:09:09.966Z,21.00
2019-04-03T19:11:42.622Z,20.45
2019-04-03T19:14:26.593Z,19.12
2019-04-03T19:16:52.422Z,20.37
2019-04-03T19:19:23.685Z,20.02
2019-04-03T19:21:56.433Z,19.30
2019-04-03T19:24:28.989Z,19.37
2019-04-03T19:27:02.336Z,19.92
2019-04-03T19:29:35.759Z,20.43
2019-04-03T19:32:11.857Z,19.52
2019-04-03T19:34:42.609Z,20.62
2019-04-03T19:37:14.953Z,20.92
2019-04-03T19:39:47.161Z,22.17
2019-04-03T19:42:19.828Z,20.80
2019-04-03T19:44:52.670Z,21.95
2019-04-03T19:47:25.513Z,23.70
2019-04-03T19:50:00.026Z,23.65
2019-04-03T19:52:31.944Z,22.07
2019-04-03T19:55:05.138Z,22.48
2019-04-03T19:57:39.134Z,22.48
2019-04-03T20:00:12.250Z,21.15
2019-04-03T20:02:45.170Z,23.27
2019-04-03T20:05:18.976Z,22.32
2019-04-03T20:07:51.141Z,23.50
2019-04-03T20:10:23.656Z,24.80
2019-04-03T20:12:56.342Z,24.70
2019-04-03T20:15:28.865Z,24.87
2019-04-03T20:18:01.546Z,24.63
2019-04-03T20:20:34.025Z,25.05
2019-04-03T20:23:06.652Z,24.20
2019-04-03T20:25:39.245Z,25.08
2019-04-03T20:28:12.319Z,25.52
2019-04-03T20:30:44.859Z,24.60
2019-04-03T20:33:17.276Z,26.60
2019-04-03T20:35:49.751Z,26.73
2019-04-03T20:38:22.757Z,26.70
2019-04-03T20:40:55.109Z,24.72
2019-04-03T20:43:27.570Z,26.50
2019-04-03T20:46:01.698Z,27.25
2019-04-03T20:48:33.930Z,26.82
2019-04-03T20:51:08.795Z,26.95
2019-04-03T20:53:41.723Z,28.27
2019-04-03T20:56:14.165Z,26.17
2019-04-03T20:58:55.709Z,24.92
2019-04-03T21:01:20.208Z,26.90
2019-04-03T21:03:53.197Z,26.45
2019-04-03T21:06:25.655Z,24.40
2019-04-03T21:08:59.401Z,27.85
2019-04-03T21:11:34.534Z,25.65
2019-04-03T21:14:06.961Z,26.42
2019-04-03T21:16:39.384Z,26.48
2019-04-03T21:19:12.156Z,27.87
2019-04-03T21:21:44.646Z,26.65
2019-04-03T21:24:17.251Z,26.73
2019-04-03T21:26:49.435Z,27.82
2019-04-03T21:29:21.886Z,25.00
2019-04-03T21:31:56.520Z,26.85
2019-04-03T21:34:28.309Z,26.10
2019-04-03T21:37:00.804Z,28.00
2019-04-03T21:39:33.928Z,28.02
2019-04-03T21:42:06.585Z,27.62
2019-04-03T21:44:39.260Z,26.52
2019-04-03T21:47:12.251Z,26.52
2019-04-03T21:49:47.401Z,28.00
2019-04-03T21:52:18.767Z,28.25
2019-04-03T21:54:51.229Z,29.05
2019-04-03T21:57:23.636Z,25.40
2019-04-03T21:59:56.687Z,28.70
2019-04-03T22:02:29.216Z,28.77
2019-04-03T22:05:01.969Z,27.35
2019-04-03T22:07:35.002Z,31.23
2019-04-03T22:10:09.315Z,31.80
2019-04-03T22:12:41.761Z,29.98
2019-04-03T22:15:15.759Z,29.10
2019-04-03T22:17:48.763Z,30.15
2019-04-03T22:20:21.083Z,33.13
2019-04-03T22:22:54.209Z,34.78
2019-04-03T22:25:27.254Z,30.57
2019-04-03T22:27:59.677Z,32.25
2019-04-03T22:30:32.734Z,32.75
2019-04-03T22:33:05.098Z,33.50
2019-04-03T22:35:37.521Z,32.80
2019-04-03T22:38:09.932Z,32.67
2019-04-03T22:40:42.317Z,32.67
2019-04-03T22:43:16.225Z,32.50
2019-04-03T22:45:50.481Z,38.98
2019-04-03T22:48:22.710Z,35.58
2019-04-03T22:50:55.291Z,39.05
2019-04-03T22:53:28.222Z,36.35
2019-04-03T22:56:01.066Z,34.78
2019-04-03T22:58:33.368Z,32.80
2019-04-03T23:01:06.171Z,37.05
2019-04-03T23:03:42.106Z,49.25
2019-04-03T23:06:16.869Z,46.53
2019-04-03T23:08:51.836Z,47.60
2019-04-03T23:11:24.354Z,40.92
2019-04-03T23:13:56.780Z,34.23
2019-04-03T23:16:30.198Z,32.53
2019-04-03T23:19:03.191Z,31.57
2019-04-03T23:21:35.712Z,32.00
2019-04-03T23:24:09.003Z,31.87
2019-04-03T23:26:41.661Z,31.52
2019-04-03T23:29:14.509Z,31.87
2019-04-03T23:31:46.957Z,31.50
2019-04-03T23:34:19.674Z,33.20
2019-04-03T23:36:54.268Z,44.48
2019-04-03T23:39:28.032Z,67.30
2019-04-03T23:42:00.815Z,58.38
2019-04-03T23:44:33.145Z,56.70
2019-04-03T23:47:06.775Z,74.92
2019-04-03T23:49:41.102Z,96.25
2019-04-03T23:52:13.111Z,85.38
2019-04-03T23:54:45.549Z,91.25
2019-04-03T23:57:18.300Z,62.20
2019-04-03T23:59:51.085Z,55.20
